Paso Robles Municipal Airport Paso Robles US
ICAO: KPRB
IATA: PRB
Category: Medium
Scheduled Services: No

Elevation: 840 ft
TransAlt. 18000 ft.

Airport Communications:
ASOS:132.175
OAKLAND CNTR:128.7
HAWTHORNE RDO:122.4
CTAF/UNICOM:123

KPRB Zoom In..

Runways:

(A) RW 01 length 6008 ft width 150 ft
---- / hdg 14

(B) RW 13 length 4701 ft width 100 ft
---- / hdg 129

(C) RW 19 length 6008 ft width 150 ft
---- / hdg 194

(D) RW 31 length 4701 ft width 100 ft
---- / hdg 309

Location; KPRB
Day. 19 / Time. 02.53 Zulu
* Altimeter: 29.92
* Temperature: 27° c. 80.6°f.
* Wind from: 210° Speed 14 kn with Gusts up to 22 kn.
Dewpoint: 12° c.
Visibility: 10 Statute Miles.
Clouds: Clear (automated report).

KPRB 190253Z AUTO 21014G22KT 10SM CLR 27/12 A2992 RMK AO2 SLP124 T02670122 53006 $


Wind From 210°
Speed 14 kn.

 
 
jpsmedia.com for Web Design worldairports.se 2018   terms of use